createdAt,value
2022-09-21T00:00:25.065Z,99.99
2022-09-21T00:01:25.126Z,99.99
2022-09-21T00:02:25.091Z,99.99
2022-09-21T00:03:25.005Z,99.99
2022-09-21T00:04:24.989Z,99.99
2022-09-21T00:05:24.966Z,99.99
2022-09-21T00:06:24.948Z,99.99
2022-09-21T00:07:24.936Z,99.99
2022-09-21T00:08:24.909Z,99.99
2022-09-21T00:09:24.891Z,99.99
2022-09-21T00:10:24.870Z,99.99
2022-09-21T00:11:25.055Z,99.99
2022-09-21T00:12:24.831Z,99.99
2022-09-21T00:13:24.816Z,99.99
2022-09-21T00:14:24.796Z,99.99
2022-09-21T00:15:24.778Z,99.99
2022-09-21T00:16:24.802Z,99.99
2022-09-21T00:17:24.739Z,99.99
2022-09-21T00:18:24.726Z,99.99
2022-09-21T00:19:24.701Z,99.99
2022-09-21T00:20:24.681Z,99.99
2022-09-21T00:21:24.668Z,99.99
2022-09-21T00:22:24.655Z,99.99
2022-09-21T00:23:24.627Z,99.99
2022-09-21T00:24:24.606Z,99.99
2022-09-21T00:25:24.590Z,99.99
2022-09-21T00:26:24.567Z,99.99
2022-09-21T00:27:24.561Z,99.99
2022-09-21T00:28:24.540Z,99.99
2022-09-21T00:29:24.521Z,99.99
2022-09-21T00:30:24.493Z,99.99
2022-09-21T00:31:24.549Z,99.99
2022-09-21T00:32:24.453Z,99.99
2022-09-21T00:33:24.444Z,99.99
2022-09-21T00:34:24.417Z,99.99
2022-09-21T00:35:24.400Z,99.99
2022-09-21T00:36:24.383Z,99.99
2022-09-21T00:37:24.361Z,99.99
2022-09-21T00:38:24.367Z,99.99
2022-09-21T00:39:24.339Z,99.99
2022-09-21T00:40:24.324Z,99.99
2022-09-21T00:41:24.288Z,99.99
2022-09-21T00:42:24.272Z,99.99
2022-09-21T00:43:24.262Z,99.99
2022-09-21T00:44:24.229Z,99.99
2022-09-21T00:45:24.279Z,99.99
2022-09-21T00:46:24.196Z,99.99
2022-09-21T00:47:24.172Z,99.99
2022-09-21T00:48:24.161Z,99.99
2022-09-21T00:49:24.133Z,99.99
2022-09-21T00:50:24.115Z,99.99
2022-09-21T00:51:24.095Z,99.99
2022-09-21T00:52:24.087Z,99.99
2022-09-21T00:53:24.057Z,99.99
2022-09-21T00:54:24.037Z,99.99
2022-09-21T00:55:24.019Z,99.99
2022-09-21T00:56:23.996Z,99.99
2022-09-21T00:57:23.982Z,99.99
2022-09-21T00:58:23.960Z,99.99
2022-09-21T00:59:28.050Z,99.99
2022-09-21T01:00:23.923Z,99.99
2022-09-21T01:01:23.948Z,99.99
2022-09-21T01:02:23.921Z,99.99
2022-09-21T01:03:23.865Z,99.99
2022-09-21T01:04:23.848Z,99.99
2022-09-21T01:05:23.826Z,99.99
2022-09-21T01:06:23.803Z,99.99
2022-09-21T01:07:23.788Z,99.99
2022-09-21T01:08:23.774Z,99.99
2022-09-21T01:09:23.749Z,99.99
2022-09-21T01:10:23.731Z,99.99
2022-09-21T01:11:23.711Z,99.99
2022-09-21T01:12:23.693Z,99.99
2022-09-21T01:13:23.676Z,99.99
2022-09-21T01:14:23.654Z,99.99
2022-09-21T01:15:23.649Z,99.99
2022-09-21T01:16:23.658Z,99.99
2022-09-21T01:17:23.598Z,99.99
2022-09-21T01:18:23.575Z,99.99
2022-09-21T01:19:23.558Z,99.99
2022-09-21T01:20:23.542Z,99.99
2022-09-21T01:21:23.529Z,99.99
2022-09-21T01:22:23.498Z,99.99
2022-09-21T01:23:23.481Z,99.99
2022-09-21T01:24:23.463Z,99.99
2022-09-21T01:25:23.449Z,99.99
2022-09-21T01:26:23.421Z,99.99
2022-09-21T01:27:23.404Z,99.99
2022-09-21T01:28:23.380Z,99.99
2022-09-21T01:29:23.363Z,99.99
2022-09-21T01:30:23.349Z,99.99
2022-09-21T01:31:23.335Z,99.99
2022-09-21T01:32:23.305Z,99.99
2022-09-21T01:33:23.287Z,99.99
2022-09-21T01:34:23.265Z,99.99
2022-09-21T01:35:23.248Z,99.99
2022-09-21T01:36:23.230Z,99.99
2022-09-21T01:37:23.211Z,99.99
2022-09-21T01:38:23.187Z,99.99
2022-09-21T01:39:23.174Z,99.99
2022-09-21T01:40:23.170Z,99.99
2022-09-21T01:41:23.132Z,99.99
2022-09-21T01:42:23.112Z,99.99
2022-09-21T01:43:23.095Z,99.99
2022-09-21T01:44:23.073Z,99.99
2022-09-21T01:45:23.103Z,99.99
2022-09-21T01:46:23.038Z,99.99
2022-09-21T01:47:23.016Z,99.99
2022-09-21T01:48:22.996Z,99.99
2022-09-21T01:49:22.978Z,99.99
2022-09-21T01:50:22.957Z,99.99
2022-09-21T01:51:22.940Z,99.99
2022-09-21T01:52:22.917Z,99.99
2022-09-21T01:53:22.900Z,99.99
2022-09-21T01:54:22.884Z,99.99
2022-09-21T01:55:22.861Z,99.99
2022-09-21T01:56:22.839Z,99.99
2022-09-21T01:57:22.835Z,99.99
2022-09-21T01:58:22.801Z,99.99
2022-09-21T01:59:22.803Z,99.99
2022-09-21T02:00:22.765Z,99.99
2022-09-21T02:01:22.745Z,99.99
2022-09-21T02:02:22.724Z,99.99
2022-09-21T02:03:22.709Z,99.99
2022-09-21T02:04:22.683Z,99.99
2022-09-21T02:05:22.668Z,99.99
2022-09-21T02:06:22.646Z,99.99
2022-09-21T02:07:22.626Z,99.99
2022-09-21T02:08:22.609Z,99.99
2022-09-21T02:09:22.587Z,99.99
2022-09-21T02:10:22.567Z,99.99
2022-09-21T02:11:22.555Z,99.99
2022-09-21T02:12:22.531Z,99.99
2022-09-21T02:13:22.532Z,99.99
2022-09-21T02:14:22.547Z,99.99
2022-09-21T02:15:22.484Z,99.99
2022-09-21T02:16:22.498Z,99.99
2022-09-21T02:17:22.450Z,99.99
2022-09-21T02:18:22.423Z,99.99
2022-09-21T02:19:22.395Z,99.99
2022-09-21T02:20:22.387Z,99.99
2022-09-21T02:21:22.351Z,99.99
2022-09-21T02:22:22.342Z,99.99
2022-09-21T02:23:22.317Z,99.99
2022-09-21T02:24:22.319Z,99.99
2022-09-21T02:25:22.275Z,99.99
2022-09-21T02:26:22.256Z,99.99
2022-09-21T02:27:22.237Z,99.99
2022-09-21T02:28:22.222Z,99.99
2022-09-21T02:29:22.195Z,99.99
2022-09-21T02:30:22.203Z,99.99
2022-09-21T02:31:22.188Z,99.99
2022-09-21T02:32:22.141Z,99.99
2022-09-21T02:33:22.120Z,99.99
2022-09-21T02:34:22.102Z,99.99
2022-09-21T02:35:22.099Z,99.99
2022-09-21T02:36:22.062Z,99.99
2022-09-21T02:37:22.038Z,99.99
2022-09-21T02:38:22.017Z,99.99
2022-09-21T02:39:22.002Z,99.99
2022-09-21T02:40:22.019Z,99.99
2022-09-21T02:41:21.963Z,99.99
2022-09-21T02:42:21.947Z,99.99
2022-09-21T02:43:21.969Z,99.99
2022-09-21T02:44:21.906Z,99.99
2022-09-21T02:45:21.893Z,99.99
2022-09-21T02:46:21.876Z,99.99
2022-09-21T02:47:21.845Z,99.99
2022-09-21T02:48:21.822Z,99.99
2022-09-21T02:49:21.803Z,99.99
2022-09-21T02:50:21.784Z,99.99
2022-09-21T02:51:21.763Z,99.99
2022-09-21T02:52:21.745Z,99.99
2022-09-21T02:53:21.725Z,99.99
2022-09-21T02:54:21.706Z,99.99
2022-09-21T02:55:21.687Z,99.99
2022-09-21T02:56:21.667Z,99.99
2022-09-21T02:57:21.658Z,99.99
2022-09-21T02:58:21.635Z,99.99
2022-09-21T02:59:21.609Z,99.99
2022-09-21T03:00:21.592Z,99.99
2022-09-21T03:01:21.570Z,99.99
2022-09-21T03:02:21.552Z,99.99
2022-09-21T03:03:21.529Z,99.99
2022-09-21T03:04:21.508Z,99.99
2022-09-21T03:05:21.499Z,99.99
2022-09-21T03:06:21.471Z,99.99
2022-09-21T03:07:21.451Z,99.99
2022-09-21T03:08:21.432Z,99.99
2022-09-21T03:09:21.410Z,99.99
2022-09-21T03:10:21.394Z,99.99
2022-09-21T03:11:21.397Z,99.99
2022-09-21T03:12:21.364Z,99.99
2022-09-21T03:13:21.329Z,99.99
2022-09-21T03:14:21.317Z,99.99
2022-09-21T03:15:21.296Z,99.99
2022-09-21T03:16:21.293Z,99.99
2022-09-21T03:17:21.253Z,99.99
2022-09-21T03:18:21.235Z,99.99
2022-09-21T03:19:21.210Z,99.99
2022-09-21T03:20:21.194Z,99.99
2022-09-21T03:21:21.171Z,99.99
2022-09-21T03:22:21.159Z,99.99
2022-09-21T03:23:21.133Z,99.99
2022-09-21T03:24:21.116Z,99.99
2022-09-21T03:25:21.094Z,99.99
2022-09-21T03:26:21.072Z,99.99
2022-09-21T03:27:21.064Z,99.99
2022-09-21T03:28:21.034Z,99.99
2022-09-21T03:29:21.018Z,99.99
2022-09-21T03:30:20.997Z,99.99
2022-09-21T03:31:21.016Z,99.99
2022-09-21T03:32:20.958Z,99.99
2022-09-21T03:33:20.937Z,99.99
2022-09-21T03:34:20.915Z,99.99
2022-09-21T03:35:20.895Z,99.99
2022-09-21T03:36:20.880Z,99.99
2022-09-21T03:37:20.851Z,99.99
2022-09-21T03:38:20.836Z,99.99
2022-09-21T03:39:20.816Z,99.99
2022-09-21T03:40:20.829Z,99.99
2022-09-21T03:41:20.785Z,99.99
2022-09-21T03:42:20.755Z,99.99
2022-09-21T03:43:20.735Z,99.99
2022-09-21T03:44:20.717Z,99.99
2022-09-21T03:45:20.701Z,99.99
2022-09-21T03:46:20.709Z,99.99
2022-09-21T03:47:20.706Z,99.99
2022-09-21T03:48:20.649Z,99.99
2022-09-21T03:49:20.628Z,99.99
2022-09-21T03:50:20.598Z,99.99
2022-09-21T03:51:20.603Z,99.99
2022-09-21T03:52:20.573Z,99.99
2022-09-21T03:53:20.536Z,99.99
2022-09-21T03:54:20.523Z,99.99
2022-09-21T03:55:20.509Z,99.99
2022-09-21T03:56:28.137Z,99.99
2022-09-21T03:58:25.926Z,99.99
2022-09-21T03:59:25.887Z,99.99
2022-09-21T04:01:30.408Z,99.99
2022-09-21T04:02:30.321Z,99.99
2022-09-21T04:03:30.279Z,99.99
2022-09-21T04:04:30.253Z,99.99
2022-09-21T04:05:30.234Z,99.99
2022-09-21T04:06:30.216Z,99.99
2022-09-21T04:07:30.194Z,99.99
2022-09-21T04:08:30.177Z,99.99
2022-09-21T04:09:30.151Z,99.99
2022-09-21T04:10:30.134Z,99.99
2022-09-21T04:11:30.137Z,99.99
2022-09-21T04:12:30.094Z,99.99
2022-09-21T04:13:30.075Z,99.99
2022-09-21T04:14:30.053Z,99.99
2022-09-21T04:15:30.097Z,99.99
2022-09-21T04:16:30.016Z,99.99
2022-09-21T04:17:29.996Z,99.99
2022-09-21T04:18:29.976Z,99.99
2022-09-21T04:19:29.956Z,99.99
2022-09-21T04:20:29.932Z,99.99
2022-09-21T04:21:29.915Z,99.99
2022-09-21T04:22:29.897Z,99.99
2022-09-21T04:23:29.874Z,99.99
2022-09-21T04:24:29.853Z,99.99
2022-09-21T04:25:29.839Z,99.99
2022-09-21T04:26:29.816Z,99.99
2022-09-21T04:27:29.799Z,99.99
2022-09-21T04:28:29.781Z,99.99
2022-09-21T04:29:29.761Z,99.99
2022-09-21T04:30:33.095Z,99.99
2022-09-21T04:31:29.754Z,99.99
2022-09-21T04:32:29.701Z,99.99
2022-09-21T04:33:29.682Z,99.99
2022-09-21T04:34:29.655Z,99.99
2022-09-21T04:35:29.640Z,99.99
2022-09-21T04:36:34.387Z,99.99
2022-09-21T04:37:29.606Z,99.99
2022-09-21T04:38:29.580Z,99.99
2022-09-21T04:39:29.560Z,99.99
2022-09-21T04:40:29.605Z,99.99
2022-09-21T04:41:29.524Z,99.99
2022-09-21T04:42:29.578Z,99.99
2022-09-21T04:43:29.482Z,99.99
2022-09-21T04:44:29.463Z,99.99
2022-09-21T04:45:29.440Z,99.99
2022-09-21T04:46:29.452Z,99.99
2022-09-21T04:47:29.400Z,99.99
2022-09-21T04:48:29.381Z,99.99
2022-09-21T04:49:29.360Z,99.99
2022-09-21T04:50:29.337Z,99.99
2022-09-21T04:51:29.320Z,99.99
2022-09-21T04:52:29.297Z,99.99
2022-09-21T04:53:29.278Z,99.99
2022-09-21T04:54:29.271Z,99.99
2022-09-21T04:55:29.235Z,99.99
2022-09-21T04:56:29.214Z,99.99
2022-09-21T04:57:29.200Z,99.99
2022-09-21T04:58:29.177Z,99.99
2022-09-21T04:59:29.155Z,99.99
2022-09-21T05:00:29.143Z,99.99
2022-09-21T05:01:29.166Z,99.99
2022-09-21T05:02:29.096Z,99.99
2022-09-21T05:03:29.110Z,99.99
2022-09-21T05:04:29.057Z,99.99
2022-09-21T05:05:29.036Z,99.99
2022-09-21T05:06:29.018Z,99.99
2022-09-21T05:07:28.998Z,99.99
2022-09-21T05:08:28.978Z,99.99
2022-09-21T05:09:28.957Z,99.99
2022-09-21T05:10:28.935Z,99.99
2022-09-21T05:11:28.917Z,99.99
2022-09-21T05:12:28.895Z,99.99
2022-09-21T05:13:28.877Z,99.99
2022-09-21T05:14:28.855Z,99.99
2022-09-21T05:15:28.872Z,99.99
2022-09-21T05:16:28.814Z,99.99
2022-09-21T05:17:28.798Z,99.99
2022-09-21T05:18:28.773Z,99.99
2022-09-21T05:19:28.755Z,99.99
2022-09-21T05:20:28.736Z,99.99
2022-09-21T05:21:28.716Z,99.99
2022-09-21T05:22:28.694Z,99.99
2022-09-21T05:23:28.676Z,99.99
2022-09-21T05:24:28.655Z,99.99
2022-09-21T05:25:28.633Z,99.99
2022-09-21T05:26:28.613Z,99.99
2022-09-21T05:27:28.595Z,99.99
2022-09-21T05:28:28.578Z,99.99
2022-09-21T05:29:28.552Z,99.99
2022-09-21T05:30:28.586Z,99.99
2022-09-21T05:31:28.536Z,99.99
2022-09-21T05:32:28.494Z,99.99
2022-09-21T05:33:28.473Z,99.99
2022-09-21T05:34:30.943Z,99.99
2022-09-21T05:35:28.432Z,99.99
2022-09-21T05:36:28.414Z,99.99
2022-09-21T05:37:28.395Z,99.99
2022-09-21T05:38:28.372Z,99.99
2022-09-21T05:39:28.354Z,99.99
2022-09-21T05:40:28.406Z,99.99
2022-09-21T05:41:28.317Z,99.99
2022-09-21T05:42:28.296Z,99.99
2022-09-21T05:43:28.270Z,99.99
2022-09-21T05:44:28.251Z,99.99
2022-09-21T05:45:28.232Z,99.99
2022-09-21T05:46:28.296Z,99.99
2022-09-21T05:47:28.202Z,99.99
2022-09-21T05:48:28.171Z,99.99
2022-09-21T05:49:28.150Z,99.99
2022-09-21T05:50:28.130Z,99.99
2022-09-21T05:51:28.110Z,99.99
2022-09-21T05:52:28.091Z,99.99
2022-09-21T05:53:28.068Z,99.99
2022-09-21T05:54:28.050Z,99.99
2022-09-21T05:55:28.032Z,99.99
2022-09-21T05:56:28.009Z,99.99
2022-09-21T05:57:30.783Z,99.99
2022-09-21T05:58:27.970Z,99.99
2022-09-21T05:59:27.951Z,99.99
2022-09-21T06:00:27.932Z,99.99
2022-09-21T06:01:27.952Z,99.99
2022-09-21T06:02:27.930Z,99.99
2022-09-21T06:03:27.880Z,99.99
2022-09-21T06:04:27.851Z,99.99
2022-09-21T06:05:27.830Z,99.99
2022-09-21T06:06:27.808Z,99.99
2022-09-21T06:07:27.790Z,99.99
2022-09-21T06:08:27.770Z,99.99
2022-09-21T06:09:27.751Z,99.99
2022-09-21T06:10:27.734Z,99.99
2022-09-21T06:11:27.712Z,99.99
2022-09-21T06:12:27.694Z,99.99
2022-09-21T06:13:27.671Z,99.99
2022-09-21T06:14:27.652Z,99.99
2022-09-21T06:15:27.643Z,99.99
2022-09-21T06:16:27.709Z,99.99
2022-09-21T06:17:27.596Z,99.99
2022-09-21T06:18:27.575Z,99.99
2022-09-21T06:19:27.554Z,99.99
2022-09-21T06:20:27.595Z,99.99
2022-09-21T06:21:27.516Z,99.99
2022-09-21T06:22:27.496Z,99.99
2022-09-21T06:23:27.473Z,99.99
2022-09-21T06:24:27.458Z,99.99
2022-09-21T06:25:27.435Z,99.99
2022-09-21T06:26:27.419Z,99.99
2022-09-21T06:27:27.399Z,99.99
2022-09-21T06:28:27.380Z,99.99
2022-09-21T06:29:27.359Z,99.99
2022-09-21T06:30:27.434Z,99.99
2022-09-21T06:31:27.319Z,99.99
2022-09-21T06:32:27.303Z,99.99
2022-09-21T06:33:27.288Z,99.99
2022-09-21T06:34:27.277Z,99.99
2022-09-21T06:35:27.239Z,99.99
2022-09-21T06:36:27.223Z,99.99
2022-09-21T06:37:27.204Z,99.99
2022-09-21T06:38:27.184Z,99.99
2022-09-21T06:39:27.167Z,99.99
2022-09-21T06:40:27.308Z,99.99
2022-09-21T06:41:27.127Z,99.99
2022-09-21T06:42:27.121Z,99.99
2022-09-21T06:43:27.091Z,99.99
2022-09-21T06:44:27.071Z,99.99
2022-09-21T06:45:27.053Z,99.99
2022-09-21T06:46:27.031Z,99.99
2022-09-21T06:47:27.019Z,99.99
2022-09-21T06:48:26.995Z,99.99
2022-09-21T06:49:26.978Z,99.99
2022-09-21T06:50:27.040Z,99.99
2022-09-21T06:51:26.939Z,99.99
2022-09-21T06:52:26.920Z,99.99
2022-09-21T06:53:26.907Z,99.99
2022-09-21T06:54:26.879Z,99.99
2022-09-21T06:55:26.862Z,99.99
2022-09-21T06:56:26.848Z,99.99
2022-09-21T06:57:26.827Z,99.99
2022-09-21T06:58:26.811Z,99.99
2022-09-21T06:59:26.791Z,99.99
2022-09-21T07:00:26.842Z,99.99
2022-09-21T07:01:26.842Z,99.99
2022-09-21T07:02:26.746Z,99.99
2022-09-21T07:03:26.713Z,99.99
2022-09-21T07:04:26.694Z,99.99
2022-09-21T07:05:26.677Z,99.99
2022-09-21T07:06:26.694Z,99.99
2022-09-21T07:07:26.636Z,99.99
2022-09-21T07:10:26.595Z,99.99
2022-09-21T07:11:26.563Z,99.99
2022-09-21T07:12:26.544Z,99.99
2022-09-21T07:13:26.546Z,99.99
2022-09-21T07:14:26.506Z,99.99
2022-09-21T07:15:26.485Z,99.99
2022-09-21T07:16:26.503Z,99.99
2022-09-21T07:17:26.449Z,99.99
2022-09-21T07:18:26.449Z,99.99
2022-09-21T07:19:26.410Z,99.99
2022-09-21T07:20:26.393Z,99.99
2022-09-21T07:21:26.378Z,99.99
2022-09-21T07:22:26.384Z,99.99
2022-09-21T07:23:26.336Z,99.99
2022-09-21T07:24:26.317Z,99.99
2022-09-21T07:25:26.297Z,99.99
2022-09-21T07:26:26.283Z,99.99
2022-09-21T07:27:26.260Z,99.99
2022-09-21T07:28:26.247Z,99.99
2022-09-21T07:29:26.224Z,99.99
2022-09-21T07:30:26.211Z,99.99
2022-09-21T07:31:26.227Z,99.99
2022-09-21T07:32:26.172Z,99.99
2022-09-21T07:33:26.150Z,99.99
2022-09-21T07:34:26.131Z,99.99
2022-09-21T07:35:26.113Z,99.99
2022-09-21T07:36:26.112Z,99.99
2022-09-21T07:37:26.078Z,99.99
2022-09-21T07:38:26.085Z,99.99
2022-09-21T07:39:26.039Z,99.99
2022-09-21T07:40:26.074Z,99.99
2022-09-21T07:41:26.014Z,99.99
2022-09-21T07:42:25.983Z,99.99
2022-09-21T07:43:25.972Z,99.99
2022-09-21T07:44:25.950Z,99.99
2022-09-21T07:45:25.984Z,99.99
2022-09-21T07:46:25.915Z,99.99
2022-09-21T07:47:25.896Z,99.99
2022-09-21T07:48:25.879Z,99.99
2022-09-21T07:49:25.866Z,99.99
2022-09-21T07:50:25.843Z,99.99
2022-09-21T07:51:25.828Z,99.99
2022-09-21T07:52:25.809Z,99.99
2022-09-21T07:53:25.813Z,99.99
2022-09-21T07:54:25.775Z,99.99
2022-09-21T07:55:25.754Z,99.99
2022-09-21T07:56:25.739Z,99.99
2022-09-21T07:57:25.722Z,99.99
2022-09-21T07:58:25.708Z,99.99
2022-09-21T07:59:25.687Z,99.99
2022-09-21T08:00:25.670Z,99.99
2022-09-21T08:01:25.719Z,99.99
2022-09-21T08:02:25.685Z,99.99
2022-09-21T08:03:25.623Z,99.99
2022-09-21T08:04:25.613Z,99.99
2022-09-21T08:05:25.589Z,99.99
2022-09-21T08:06:25.569Z,99.99
2022-09-21T08:07:25.577Z,99.99
2022-09-21T08:08:25.543Z,99.99
2022-09-21T08:09:25.519Z,99.99
2022-09-21T08:10:25.504Z,99.99
2022-09-21T08:11:25.484Z,99.99
2022-09-21T08:12:25.467Z,99.99
2022-09-21T08:13:25.452Z,99.99
2022-09-21T08:14:26.684Z,99.99
2022-09-21T08:15:47.498Z,99.99
2022-09-21T08:16:25.465Z,99.99
2022-09-21T08:17:25.384Z,99.99
2022-09-21T08:18:25.370Z,99.99
2022-09-21T08:19:25.349Z,99.99
2022-09-21T08:20:25.338Z,99.99
2022-09-21T08:21:25.316Z,99.99
2022-09-21T08:22:25.301Z,99.99
2022-09-21T08:23:25.290Z,99.99
2022-09-21T08:24:25.272Z,99.99
2022-09-21T08:25:25.250Z,99.99
2022-09-21T08:26:25.258Z,99.99
2022-09-21T08:27:25.398Z,99.99
2022-09-21T08:28:25.208Z,99.99
2022-09-21T08:29:25.199Z,99.99
2022-09-21T08:30:25.176Z,99.99
2022-09-21T08:31:25.193Z,99.99
2022-09-21T08:32:49.464Z,99.99
2022-09-21T08:33:29.211Z,99.99
2022-09-21T08:34:25.112Z,99.99
2022-09-21T08:35:25.099Z,99.99
2022-09-21T08:36:25.082Z,99.99
2022-09-21T08:37:25.066Z,99.99
2022-09-21T08:38:25.051Z,99.99
2022-09-21T08:39:25.031Z,99.99
2022-09-21T08:40:25.087Z,99.99
2022-09-21T08:41:25.010Z,99.99
2022-09-21T08:42:24.990Z,99.99
2022-09-21T08:43:24.974Z,99.99
2022-09-21T08:44:24.959Z,99.99
2022-09-21T08:45:24.947Z,99.99
2022-09-21T08:46:25.060Z,99.99
2022-09-21T08:47:24.911Z,99.99
2022-09-21T08:48:29.090Z,99.99
2022-09-21T08:49:24.882Z,99.99
2022-09-21T08:50:24.867Z,99.99
2022-09-21T08:51:24.859Z,99.99
2022-09-21T08:52:24.857Z,99.99
2022-09-21T08:53:24.831Z,99.99
2022-09-21T08:54:24.810Z,99.99
2022-09-21T08:55:24.809Z,99.99
2022-09-21T08:56:33.035Z,99.99
2022-09-21T08:57:24.773Z,99.99
2022-09-21T08:58:24.776Z,99.99
2022-09-21T08:59:24.743Z,99.99
2022-09-21T09:00:24.816Z,99.99
2022-09-21T09:01:24.819Z,99.99
2022-09-21T09:02:24.788Z,99.99
2022-09-21T09:03:24.688Z,99.99
2022-09-21T09:04:24.673Z,99.99
2022-09-21T09:05:24.661Z,99.99
2022-09-21T09:06:26.765Z,99.99
2022-09-21T09:07:24.636Z,99.99
2022-09-21T09:08:24.623Z,99.99
2022-09-21T09:09:24.610Z,99.99
2022-09-21T09:10:24.596Z,99.99
2022-09-21T09:11:24.585Z,99.99
2022-09-21T09:12:24.574Z,99.99
2022-09-21T09:13:24.560Z,99.99
2022-09-21T09:14:24.551Z,99.99
2022-09-21T09:15:24.540Z,99.63
2022-09-21T09:16:24.621Z,99.99
2022-09-21T09:17:24.512Z,99.01
2022-09-21T09:18:24.498Z,98.82
2022-09-21T09:19:24.488Z,98.24
2022-09-21T09:20:24.476Z,96.75
2022-09-21T09:21:30.648Z,96.27
2022-09-21T09:22:24.455Z,95.50
2022-09-21T09:23:24.441Z,95.31
2022-09-21T09:24:24.427Z,95.79
2022-09-21T09:25:24.418Z,94.74
2022-09-21T09:26:24.411Z,93.87
2022-09-21T09:27:24.396Z,93.92
2022-09-21T09:28:24.385Z,93.63
2022-09-21T09:29:24.373Z,92.91
2022-09-21T09:30:24.364Z,92.43
2022-09-21T09:31:24.396Z,91.13
2022-09-21T09:32:24.345Z,90.45
2022-09-21T09:33:24.331Z,90.21
2022-09-21T09:34:24.321Z,89.54
2022-09-21T09:35:24.308Z,89.20
2022-09-21T09:36:46.492Z,88.71
2022-09-21T09:37:24.295Z,87.60
2022-09-21T09:38:24.278Z,86.45
2022-09-21T09:39:24.275Z,85.05
2022-09-21T09:40:24.281Z,84.38
2022-09-21T09:41:24.253Z,83.80
2022-09-21T09:42:24.241Z,83.03
2022-09-21T09:43:24.230Z,82.83
2022-09-21T09:44:24.224Z,82.74
2022-09-21T09:45:26.158Z,82.74
2022-09-21T09:46:24.223Z,81.29
2022-09-21T09:47:24.195Z,80.71
2022-09-21T09:48:24.186Z,80.71
2022-09-21T09:49:24.175Z,81.24
2022-09-21T09:50:24.163Z,80.66
2022-09-21T09:51:24.157Z,79.41
2022-09-21T09:52:24.147Z,79.21
2022-09-21T09:53:24.149Z,78.67
2022-09-21T09:54:24.129Z,78.19
2022-09-21T09:55:24.123Z,77.07
2022-09-21T09:56:24.112Z,76.53
2022-09-21T09:57:24.104Z,75.85
2022-09-21T09:58:24.100Z,75.85
2022-09-21T09:59:24.092Z,75.79
2022-09-21T10:00:24.076Z,74.35
2022-09-21T10:01:24.112Z,74.06
2022-09-21T10:02:24.061Z,73.22
2022-09-21T10:03:24.062Z,72.74
2022-09-21T10:04:24.102Z,71.68
2022-09-21T10:05:24.047Z,70.32
2022-09-21T10:06:31.261Z,69.94
2022-09-21T10:08:28.116Z,69.56
2022-09-21T10:09:28.066Z,69.84
2022-09-21T10:11:33.430Z,68.66
2022-09-21T10:12:33.284Z,67.88
2022-09-21T10:14:37.268Z,66.85
2022-09-21T10:15:37.298Z,66.66
2022-09-21T10:17:30.158Z,65.72
2022-09-21T10:18:30.146Z,65.24
2022-09-21T10:20:34.142Z,63.69
2022-09-21T10:21:34.128Z,62.66
2022-09-21T10:23:38.141Z,61.76
2022-09-21T10:24:38.094Z,61.66
2022-09-21T10:26:42.071Z,61.49
2022-09-21T10:27:42.062Z,61.30
2022-09-21T10:29:46.068Z,60.17
2022-09-21T10:30:46.056Z,59.78
2022-09-21T10:32:50.020Z,58.11
2022-09-21T10:33:50.002Z,58.47
2022-09-21T10:35:54.039Z,59.43
2022-09-21T10:36:53.963Z,59.63
2022-09-21T10:38:58.013Z,59.14
2022-09-21T10:39:57.931Z,57.98
2022-09-21T10:42:01.935Z,58.39
2022-09-21T10:43:01.908Z,58.14
2022-09-21T10:45:05.892Z,57.39
2022-09-21T10:46:05.894Z,56.35
2022-09-21T10:48:09.884Z,55.02
2022-09-21T10:49:09.835Z,54.34
2022-09-21T10:51:13.938Z,52.91
2022-09-21T10:52:13.871Z,53.39
2022-09-21T10:54:18.075Z,52.25
2022-09-21T10:55:17.853Z,51.77
2022-09-21T10:56:18.077Z,51.11
2022-09-21T10:57:17.845Z,51.21
2022-09-21T10:58:17.825Z,49.87
2022-09-21T10:59:17.817Z,49.78
2022-09-21T11:00:17.817Z,48.61
2022-09-21T11:01:17.841Z,48.32
2022-09-21T11:02:17.871Z,48.30
2022-09-21T11:03:17.846Z,48.30
2022-09-21T11:04:17.839Z,48.00
2022-09-21T11:05:17.808Z,47.81
2022-09-21T11:06:17.793Z,48.10
2022-09-21T11:07:17.782Z,47.11
2022-09-21T11:08:17.775Z,46.91
2022-09-21T11:09:17.769Z,46.81
2022-09-21T11:10:17.769Z,46.72
2022-09-21T11:11:17.762Z,46.52
2022-09-21T11:12:17.757Z,46.81
2022-09-21T11:13:17.755Z,45.55
2022-09-21T11:14:17.750Z,45.18
2022-09-21T11:15:17.742Z,44.87
2022-09-21T11:16:17.786Z,45.09
2022-09-21T11:17:17.733Z,44.79
2022-09-21T11:18:17.728Z,44.92
2022-09-21T11:19:17.728Z,44.33
2022-09-21T11:20:17.718Z,43.96
2022-09-21T11:21:17.716Z,43.48
2022-09-21T11:22:17.711Z,43.48
2022-09-21T11:23:17.702Z,43.11
2022-09-21T11:24:17.703Z,42.84
2022-09-21T11:25:17.697Z,42.55
2022-09-21T11:26:17.695Z,42.45
2022-09-21T11:27:17.692Z,42.24
2022-09-21T11:28:17.684Z,42.24
2022-09-21T11:29:17.774Z,42.14
2022-09-21T11:30:17.676Z,42.35
2022-09-21T11:31:17.709Z,41.79
2022-09-21T11:32:17.672Z,41.79
2022-09-21T11:33:17.663Z,41.13
2022-09-21T11:34:17.660Z,40.83
2022-09-21T11:35:17.658Z,40.45
2022-09-21T11:36:17.665Z,40.37
2022-09-21T11:37:17.651Z,40.27
2022-09-21T11:38:17.657Z,40.35
2022-09-21T11:39:17.643Z,40.25
2022-09-21T11:40:17.728Z,40.25
2022-09-21T11:41:17.636Z,40.13
2022-09-21T11:42:17.634Z,38.96
2022-09-21T11:43:19.903Z,39.28
2022-09-21T11:44:19.141Z,38.89
2022-09-21T11:45:17.620Z,39.28
2022-09-21T11:46:17.671Z,38.98
2022-09-21T11:47:17.614Z,39.08
2022-09-21T11:48:17.614Z,38.69
2022-09-21T11:49:17.607Z,38.69
2022-09-21T11:50:31.585Z,37.91
2022-09-21T11:51:17.602Z,37.71
2022-09-21T11:52:17.598Z,37.71
2022-09-21T11:53:17.594Z,37.63
2022-09-21T11:54:17.596Z,36.94
2022-09-21T11:55:17.589Z,37.62
2022-09-21T11:56:17.583Z,37.83
2022-09-21T11:57:17.578Z,37.63
2022-09-21T11:58:17.580Z,36.66
2022-09-21T11:59:17.586Z,36.65
2022-09-21T12:00:17.574Z,36.55
2022-09-21T12:01:17.565Z,35.86
2022-09-21T12:02:17.711Z,34.40
2022-09-21T12:03:17.562Z,33.02
2022-09-21T12:04:17.570Z,31.85
2022-09-21T12:05:17.557Z,31.93
2022-09-21T12:06:17.554Z,32.42
2022-09-21T12:07:17.556Z,32.99
2022-09-21T12:08:17.543Z,32.91
2022-09-21T12:09:17.542Z,31.25
2022-09-21T12:10:17.543Z,31.34
2022-09-21T12:11:17.534Z,31.61
2022-09-21T12:12:17.532Z,31.90
2022-09-21T12:13:17.525Z,32.86
2022-09-21T12:14:17.521Z,33.34
2022-09-21T12:15:17.575Z,34.42
2022-09-21T12:16:17.550Z,34.61
2022-09-21T12:17:17.509Z,34.22
2022-09-21T12:18:17.510Z,33.93
2022-09-21T12:19:17.503Z,34.14
2022-09-21T12:20:17.497Z,34.43
2022-09-21T12:21:17.498Z,33.46
2022-09-21T12:22:17.489Z,32.68
2022-09-21T12:23:17.485Z,32.10
2022-09-21T12:24:17.479Z,31.60
2022-09-21T12:25:17.475Z,31.58
2022-09-21T12:26:17.471Z,31.95
2022-09-21T12:27:17.466Z,32.04
2022-09-21T12:28:17.462Z,32.71
2022-09-21T12:29:17.456Z,32.04
2022-09-21T12:30:17.453Z,32.13
2022-09-21T12:31:17.533Z,32.42
2022-09-21T12:32:17.441Z,32.91
2022-09-21T12:33:17.432Z,32.81
2022-09-21T12:34:17.450Z,31.74
2022-09-21T12:35:17.426Z,32.04
2022-09-21T12:36:17.418Z,31.92
2022-09-21T12:37:17.417Z,31.50
2022-09-21T12:38:17.408Z,32.86
2022-09-21T12:39:17.406Z,34.20
2022-09-21T12:40:17.443Z,34.20
2022-09-21T12:41:17.389Z,34.70
2022-09-21T12:42:17.388Z,34.12
2022-09-21T12:43:17.389Z,33.65
2022-09-21T12:44:17.375Z,33.38
2022-09-21T12:45:17.368Z,33.18
2022-09-21T12:46:17.609Z,33.01
2022-09-21T12:47:17.359Z,33.22
2022-09-21T12:48:17.352Z,33.14
2022-09-21T12:49:17.345Z,33.14
2022-09-21T12:50:17.346Z,33.14
2022-09-21T12:51:17.335Z,33.31
2022-09-21T12:52:17.329Z,33.29
2022-09-21T12:53:17.324Z,32.99
2022-09-21T12:54:17.319Z,34.33
2022-09-21T12:55:17.599Z,34.43
2022-09-21T12:56:17.308Z,33.47
2022-09-21T12:57:38.226Z,32.97
2022-09-21T12:58:17.301Z,32.10
2022-09-21T12:59:17.290Z,32.86
2022-09-21T13:00:17.298Z,32.28
2022-09-21T13:01:17.466Z,32.28
2022-09-21T13:02:17.497Z,32.10
2022-09-21T13:03:17.265Z,32.59
2022-09-21T13:04:17.258Z,32.70
2022-09-21T13:05:17.251Z,31.26
2022-09-21T13:06:17.247Z,31.07
2022-09-21T13:07:17.245Z,30.97
2022-09-21T13:08:17.235Z,30.68
2022-09-21T13:09:17.229Z,29.51
2022-09-21T13:10:17.224Z,30.09
2022-09-21T13:11:17.219Z,29.51
2022-09-21T13:12:17.212Z,29.91
2022-09-21T13:13:17.211Z,30.51